Time;durP1;ratioP1;P1;durP2;ratioP2;P2;SDS_P1;SDS_P2;PMS_P1;PMS_P2;Temp;Humidity;BMP_temperature;BMP_pressure;BME280_temperature;BME280_humidity;BME280_pressure;Samples;Min_cycle;Max_cycle;Signal;HPM_P1;HPM_P2
2023/11/17 00:01:17;;;;;;;;;;;;;;;;;;2198440;67;2065;-20
2023/11/17 00:03:48;;;;;;;;;;;;;;;;;;2198474;59;2166;-20
2023/11/17 00:06:18;;;;;;;;;;;;;;;;;;2197154;67;1899;-20
2023/11/17 00:08:48;;;;;;;;;;;;;;;;;;2198968;59;1830;-20
2023/11/17 00:11:18;;;;;;;;;;;;;;;;;;2198623;59;1837;-20
2023/11/17 00:13:49;;;;;;;;;;;;;;;;;;2197681;59;2230;-20
2023/11/17 00:16:19;;;;;;;;;;;;;;;;;;2197391;60;2530;-20
2023/11/17 00:18:50;;;;;;;;;;;;;;;;;;2198483;67;2383;-20
2023/11/17 00:21:21;;;;;;;;;;;;;;;;;;2198694;59;1983;-20
2023/11/17 00:23:51;;;;;;;;;;;;;;;;;;2197629;59;1887;-20
2023/11/17 00:26:21;;;;;;;;;;;;;;;;;;2196948;67;1859;-20
2023/11/17 00:28:53;;;;;;;;;;;;;;;;;;2196427;59;2243;-20
2023/11/17 00:31:23;;;;;;;;;;;;;;;;;;2199110;59;1897;-20
2023/11/17 00:33:53;;;;;;;;;;;;;;;;;;2197049;59;2680;-20
2023/11/17 00:36:24;;;;;;;;;;;;;;;;;;2197583;67;1961;-20
2023/11/17 00:38:54;;;;;;;;;;;;;;;;;;2201589;59;2606;-24
2023/11/17 00:41:24;;;;;;;;;;;;;;;;;;2196422;59;1823;-24
2023/11/17 00:43:55;;;;;;;;;;;;;;;;;;2195819;59;2739;-24
2023/11/17 00:46:26;;;;;;;;;;;;;;;;;;2196775;59;1932;-25
2023/11/17 00:48:59;;;;;;;;;;;;;;;;;;2193480;67;2517;-25
2023/11/17 00:51:29;;;;;;;;;;;;;;;;;;2194562;67;1835;-25
2023/11/17 00:54:04;;;;;;;;;;;;;;;;;;2193144;67;1862;-25
2023/11/17 00:56:34;;;;;;;;;;;;;;;;;;2193968;59;1941;-25
2023/11/17 00:59:04;;;;;;;;;;;;;;;;;;2193557;67;1679;-25
2023/11/17 01:01:36;;;;;;;;;;;;;;;;;;2194178;67;1995;-25
2023/11/17 01:04:07;;;;;;;;;;;;;;;;;;2190825;59;2299;-25
2023/11/17 01:06:37;;;;;;;;;;;;;;;;;;2194926;67;1806;-25
2023/11/17 01:09:08;;;;;;;;;;;;;;;;;;2193504;67;2200;-25
2023/11/17 01:11:39;;;;;;;;;;;;;;;;;;2194085;67;2051;-25
2023/11/17 01:14:09;;;;;;;;;;;;;;;;;;2193244;59;2486;-25
2023/11/17 01:16:39;;;;;;;;;;;;;;;;;;2189737;67;2380;-26
2023/11/17 01:19:09;;;;;;;;;;;;;;;;;;2193935;67;2273;-25
2023/11/17 01:21:40;;;;;;;;;;;;;;;;;;2194192;60;2498;-25
2023/11/17 01:24:10;;;;;;;;;;;;;;;;;;2191830;67;1915;-25
2023/11/17 01:26:40;;;;;;;;;;;;;;;;;;2193267;67;2303;-25
2023/11/17 01:29:11;;;;;;;;;;;;;;;;;;2193746;59;2492;-25
2023/11/17 01:31:42;;;;;;;;;;;;;;;;;;2194087;59;1826;-25
2023/11/17 01:34:12;;;;;;;;;;;;;;;;;;2194782;67;1754;-25
2023/11/17 01:36:43;;;;;;;;;;;;;;;;;;2193558;67;2009;-25
2023/11/17 01:39:14;;;;;;;;;;;;;;;;;;2193636;59;2108;-25
2023/11/17 01:41:44;;;;;;;;;;;;;;;;;;2193666;59;2025;-25
2023/11/17 01:44:14;;;;;;;;;;;;;;;;;;2193490;59;2068;-25
2023/11/17 01:46:45;;;;;;;;;;;;;;;;;;2193562;59;1904;-25
2023/11/17 01:49:15;;;;;;;;;;;;;;;;;;2190330;67;2179;-25
2023/11/17 01:51:46;;;;;;;;;;;;;;;;;;2192527;67;1959;-25
2023/11/17 01:54:16;;;;;;;;;;;;;;;;;;2193592;59;1659;-25
2023/11/17 01:56:47;;;;;;;;;;;;;;;;;;2193702;67;2180;-25
2023/11/17 01:59:18;;;;;;;;;;;;;;;;;;2193413;59;1832;-25
2023/11/17 02:01:48;;;;;;;;;;;;;;;;;;2190503;67;2948;-25
2023/11/17 02:04:20;;;;;;;;;;;;;;;;;;2194048;59;2535;-25
2023/11/17 02:07:01;;;;;;;;;;;;;;;;;;2193131;67;1721;-25
2023/11/17 02:09:50;;;;;;;;;;;;;;;;;;2190460;67;1834;-25
2023/11/17 02:12:30;;;;;;;;;;;;;;;;;;2193891;59;2387;-25
2023/11/17 02:15:08;;;;;;;;;;;;;;;;;;2192362;67;2298;-25
2023/11/17 02:17:43;;;;;;;;;;;;;;;;;;2193887;67;3027;-25
2023/11/17 02:20:19;;;;;;;;;;;;;;;;;;2193733;67;1833;-25
2023/11/17 02:22:51;;;;;;;;;;;;;;;;;;2193804;67;2515;-25
2023/11/17 02:25:32;;;;;;;;;;;;;;;;;;2193257;67;2107;-25
2023/11/17 02:28:23;;;;;;;;;;;;;;;;;;2192795;59;2156;-25
2023/11/17 02:30:56;;;;;;;;;;;;;;;;;;2193756;59;2387;-24
2023/11/17 02:33:26;;;;;;;;;;;;;;;;;;2194252;59;1883;-24
2023/11/17 02:36:02;;;;;;;;;;;;;;;;;;2193671;59;1937;-24
2023/11/17 02:38:33;;;;;;;;;;;;;;;;;;2193624;59;2779;-24
2023/11/17 02:41:08;;;;;;;;;;;;;;;;;;2193553;59;2350;-24
2023/11/17 02:43:39;;;;;;;;;;;;;;;;;;2193395;59;2758;-25
2023/11/17 02:46:09;;;;;;;;;;;;;;;;;;2192703;59;2260;-24
2023/11/17 02:48:42;;;;;;;;;;;;;;;;;;2193768;67;2067;-24
2023/11/17 02:51:18;;;;;;;;;;;;;;;;;;2193876;62;2658;-24
2023/11/17 02:53:49;;;;;;;;;;;;;;;;;;2193781;67;1849;-24
2023/11/17 02:56:19;;;;;;;;;;;;;;;;;;2193310;67;2004;-25
2023/11/17 02:58:54;;;;;;;;;;;;;;;;;;2193067;67;2103;-25
2023/11/17 03:01:24;;;;;;;;;;;;;;;;;;2193829;67;1904;-24
2023/11/17 03:03:55;;;;;;;;;;;;;;;;;;2193416;59;2137;-24
2023/11/17 03:06:28;;;;;;;;;;;;;;;;;;2194522;59;2711;-24
2023/11/17 03:08:59;;;;;;;;;;;;;;;;;;2193146;59;2118;-24
2023/11/17 03:11:29;;;;;;;;;;;;;;;;;;2190973;59;2522;-24
2023/11/17 03:14:05;;;;;;;;;;;;;;;;;;2194272;67;1945;-25
2023/11/17 03:16:36;;;;;;;;;;;;;;;;;;2194253;59;2448;-25
2023/11/17 03:19:10;;;;;;;;;;;;;;;;;;2194133;59;1933;-25
2023/11/17 03:21:44;;;;;;;;;;;;;;;;;;2194579;67;2651;-25
2023/11/17 03:24:20;;;;;;;;;;;;;;;;;;2194166;59;2667;-25
2023/11/17 03:26:52;;;;;;;;;;;;;;;;;;2193886;67;1969;-25
2023/11/17 03:29:24;;;;;;;;;;;;;;;;;;2194408;59;2431;-25
2023/11/17 03:31:55;;;;;;;;;;;;;;;;;;2193949;59;1853;-25
2023/11/17 03:34:29;;;;;;;;;;;;;;;;;;2193931;67;2262;-26
2023/11/17 03:37:03;;;;;;;;;;;;;;;;;;2192931;59;1693;-26
2023/11/17 03:39:43;;;;;;;;;;;;;;;;;;2193664;59;1726;-25
2023/11/17 03:42:18;;;;;;;;;;;;;;;;;;2193819;59;2424;-25
2023/11/17 03:44:48;;;;;;;;;;;;;;;;;;2194199;59;1747;-26
2023/11/17 03:47:19;;;;;;;;;;;;;;;;;;2194446;59;1840;-25
2023/11/17 03:49:50;;;;;;;;;;;;;;;;;;2193154;59;2914;-26
2023/11/17 03:52:23;;;;;;;;;;;;;;;;;;2194498;67;2965;-25
2023/11/17 03:54:56;;;;;;;;;;;;;;;;;;2193852;67;1934;-25
2023/11/17 03:57:29;;;;;;;;;;;;;;;;;;2193940;67;2635;-25
2023/11/17 04:00:00;;;;;;;;;;;;;;;;;;2193165;67;2087;-25
2023/11/17 04:02:30;;;;;;;;;;;;;;;;;;2193782;59;2921;-25
2023/11/17 04:05:03;;;;;;;;;;;;;;;;;;2194056;67;2688;-25
2023/11/17 04:07:33;;;;;;;;;;;;;;;;;;2194335;67;2486;-25
2023/11/17 04:10:04;;;;;;;;;;;;;;;;;;2193536;67;2779;-26
2023/11/17 04:12:35;;;;;;;;;;;;;;;;;;2190689;67;2166;-25
2023/11/17 04:15:06;;;;;;;;;;;;;;;;;;2193443;67;2233;-25
2023/11/17 04:17:37;;;;;;;;;;;;;;;;;;2193480;59;1772;-25
2023/11/17 04:20:14;;;;;;;;;;;;;;;;;;2193931;67;1791;-25
2023/11/17 04:22:44;;;;;;;;;;;;;;;;;;2194279;67;2798;-25
2023/11/17 04:25:14;;;;;;;;;;;;;;;;;;2193860;59;2558;-25
2023/11/17 04:27:45;;;;;;;;;;;;;;;;;;2193851;59;2175;-25
2023/11/17 04:30:15;;;;;;;;;;;;;;;;;;2194117;59;2376;-25
2023/11/17 04:32:45;;;;;;;;;;;;;;;;;;2194818;59;2323;-25
2023/11/17 04:35:16;;;;;;;;;;;;;;;;;;2192804;59;2460;-26
2023/11/17 04:37:46;;;;;;;;;;;;;;;;;;2194393;59;2200;-26
2023/11/17 04:40:16;;;;;;;;;;;;;;;;;;2193979;59;2538;-26
2023/11/17 04:42:46;;;;;;;;;;;;;;;;;;2194342;59;2427;-25
2023/11/17 04:45:17;;;;;;;;;;;;;;;;;;2193706;59;2431;-26
2023/11/17 04:47:48;;;;;;;;;;;;;;;;;;2194483;59;2884;-26
2023/11/17 04:50:18;;;;;;;;;;;;;;;;;;2193986;60;1659;-26
2023/11/17 04:52:49;;;;;;;;;;;;;;;;;;2194041;67;2108;-26
2023/11/17 04:55:19;;;;;;;;;;;;;;;;;;2193625;59;1928;-26
2023/11/17 04:57:49;;;;;;;;;;;;;;;;;;2194969;67;1801;-25
2023/11/17 05:00:20;;;;;;;;;;;;;;;;;;2193662;59;2824;-25
2023/11/17 05:02:50;;;;;;;;;;;;;;;;;;2193903;59;2273;-26
2023/11/17 05:05:20;;;;;;;;;;;;;;;;;;2193462;59;1919;-26
2023/11/17 05:07:51;;;;;;;;;;;;;;;;;;2193856;59;2035;-28
2023/11/17 05:10:21;;;;;;;;;;;;;;;;;;2193665;67;1698;-26
2023/11/17 05:12:52;;;;;;;;;;;;;;;;;;2193858;67;2386;-26
2023/11/17 05:15:22;;;;;;;;;;;;;;;;;;2193646;67;1990;-26
2023/11/17 05:17:52;;;;;;;;;;;;;;;;;;2193890;59;2078;-26
2023/11/17 05:20:23;;;;;;;;;;;;;;;;;;2194356;67;2499;-26
2023/11/17 05:22:54;;;;;;;;;;;;;;;;;;2193930;67;1881;-26
2023/11/17 05:25:27;;;;;;;;;;;;;;;;;;2194170;67;2651;-25
2023/11/17 05:27:57;;;;;;;;;;;;;;;;;;2193171;59;2734;-25
2023/11/17 05:30:28;;;;;;;;;;;;;;;;;;2193555;59;2611;-25
2023/11/17 05:32:59;;;;;;;;;;;;;;;;;;2194132;59;1921;-26
2023/11/17 05:35:29;;;;;;;;;;;;;;;;;;2193624;59;2025;-26
2023/11/17 05:37:59;;;;;;;;;;;;;;;;;;2193951;59;2638;-25
2023/11/17 05:40:33;;;;;;;;;;;;;;;;;;2194384;59;2239;-26
2023/11/17 05:43:06;;;;;;;;;;;;;;;;;;2194058;66;2435;-25
2023/11/17 05:45:36;;;;;;;;;;;;;;;;;;2193198;59;2437;-25
2023/11/17 05:48:06;;;;;;;;;;;;;;;;;;2194143;59;1989;-25
2023/11/17 05:50:36;;;;;;;;;;;;;;;;;;2190868;67;2830;-26
2023/11/17 05:53:07;;;;;;;;;;;;;;;;;;2191734;67;2100;-25
2023/11/17 05:55:38;;;;;;;;;;;;;;;;;;2194252;67;1940;-25
2023/11/17 05:58:09;;;;;;;;;;;;;;;;;;2194229;59;1948;-25
2023/11/17 06:00:39;;;;;;;;;;;;;;;;;;2194023;59;2672;-25
2023/11/17 06:03:09;;;;;;;;;;;;;;;;;;2193786;59;2569;-30
2023/11/17 06:05:39;;;;;;;;;;;;;;;;;;2194422;67;2621;-25
2023/11/17 06:08:09;;;;;;;;;;;;;;;;;;2193980;67;2358;-25
2023/11/17 06:10:40;;;;;;;;;;;;;;;;;;2194529;67;1340;-25
2023/11/17 06:13:14;;;;;;;;;;;;;;;;;;2193534;59;1386;-25
2023/11/17 06:15:44;;;;;;;;;;;;;;;;;;2192351;67;1929;-26
2023/11/17 06:18:16;;;;;;;;;;;;;;;;;;2193148;67;1659;-25
2023/11/17 06:20:49;;;;;;;;;;;;;;;;;;2194512;67;1254;-25
2023/11/17 06:23:19;;;;;;;;;;;;;;;;;;2194296;67;1671;-26
2023/11/17 06:25:49;;;;;;;;;;;;;;;;;;2193867;67;1333;-25
2023/11/17 06:28:19;;;;;;;;;;;;;;;;;;2194351;59;2194;-25
2023/11/17 06:30:50;;;;;;;;;;;;;;;;;;2194344;59;2397;-25
2023/11/17 06:33:22;;;;;;;;;;;;;;;;;;2194052;67;1688;-26
2023/11/17 06:35:52;;;;;;;;;;;;;;;;;;2193996;59;1949;-25
2023/11/17 06:40:59;;;;;;;;;;;;;;;;;;2207316;59;2778;-21
2023/11/17 06:43:29;;;;;;;;;;;;;;;;;;2208675;59;1917;-22
2023/11/17 06:46:01;;;;;;;;;;;;;;;;;;2209305;59;1750;-22
2023/11/17 06:48:32;;;;;;;;;;;;;;;;;;2208463;59;2323;-23
2023/11/17 06:51:06;;;;;;;;;;;;;;;;;;2205968;67;2286;-22
2023/11/17 06:53:36;;;;;;;;;;;;;;;;;;2205796;67;2878;-23
2023/11/17 06:56:06;;;;;;;;;;;;;;;;;;2205858;59;2019;-21
2023/11/17 06:58:37;;;;;;;;;;;;;;;;;;2205649;59;1787;-19
2023/11/17 07:01:09;;;;;;;;;;;;;;;;;;2203131;59;2842;-19
2023/11/17 07:03:39;;;;;;;;;;;;;;;;;;2204858;59;2341;-19
2023/11/17 07:06:11;;;;;;;;;;;;;;;;;;2204044;59;2567;-20
2023/11/17 07:08:41;;;;;;;;;;;;;;;;;;2206202;59;2425;-22
2023/11/17 07:11:13;;;;;;;;;;;;;;;;;;2203375;59;2670;-23
2023/11/17 07:13:45;;;;;;;;;;;;;;;;;;2205623;59;2004;-24
2023/11/17 07:16:18;;;;;;;;;;;;;;;;;;2205756;67;2911;-23
2023/11/17 07:18:48;;;;;;;;;;;;;;;;;;2205287;67;1912;-23
2023/11/17 07:21:18;;;;;;;;;;;;;;;;;;2205146;67;1873;-22
2023/11/17 07:23:49;;;;;;;;;;;;;;;;;;2205553;67;2059;-21
2023/11/17 07:26:20;;;;;;;;;;;;;;;;;;2205230;59;2070;-23
2023/11/17 07:28:50;;;;;;;;;;;;;;;;;;2205773;59;2302;-22
2023/11/17 07:31:21;;;;;;;;;;;;;;;;;;2204283;59;2082;-22
2023/11/17 07:33:51;;;;;;;;;;;;;;;;;;2205128;59;2109;-21
2023/11/17 07:36:22;;;;;;;;;;;;;;;;;;2204084;59;2428;-21
2023/11/17 07:38:54;;;;;;;;;;;;;;;;;;2205538;59;1865;-22
2023/11/17 07:41:25;;;;;;;;;;;;;;;;;;2205531;59;1869;-22
2023/11/17 07:43:56;;;;;;;;;;;;;;;;;;2205571;59;1859;-21
2023/11/17 07:46:29;;;;;;;;;;;;;;;;;;2205571;59;1949;-22
2023/11/17 07:49:00;;;;;;;;;;;;;;;;;;2205240;67;2848;-23
2023/11/17 07:51:30;;;;;;;;;;;;;;;;;;2204512;67;2365;-23
2023/11/17 07:54:01;;;;;;;;;;;;;;;;;;2205088;67;1842;-23
2023/11/17 07:56:31;;;;;;;;;;;;;;;;;;2204291;59;2369;-22
2023/11/17 07:59:03;;;;;;;;;;;;;;;;;;2204330;67;3033;-23
2023/11/17 08:01:33;;;;;;;;;;;;;;;;;;2205525;67;1849;-22
2023/11/17 08:04:05;;;;;;;;;;;;;;;;;;2204330;59;2407;-21
2023/11/17 08:06:36;;;;;;;;;;;;;;;;;;2204918;63;1998;-22
2023/11/17 08:09:09;;;;;;;;;;;;;;;;;;2203614;59;2810;-22
2023/11/17 08:11:40;;;;;;;;;;;;;;;;;;2203728;59;3260;-22
2023/11/17 08:14:10;;;;;;;;;;;;;;;;;;2202383;63;2486;-23
2023/11/17 08:16:41;;;;;;;;;;;;;;;;;;2204066;59;1998;-23
2023/11/17 08:19:11;;;;;;;;;;;;;;;;;;2203849;59;2138;-23
2023/11/17 08:21:42;;;;;;;;;;;;;;;;;;2204177;67;2413;-23
2023/11/17 08:24:12;;;;;;;;;;;;;;;;;;2200324;59;2578;-23
2023/11/17 08:26:42;;;;;;;;;;;;;;;;;;2203160;59;2274;-22
2023/11/17 08:29:13;;;;;;;;;;;;;;;;;;2203292;59;2215;-22
2023/11/17 08:31:43;;;;;;;;;;;;;;;;;;2204518;59;2187;-23
2023/11/17 08:34:14;;;;;;;;;;;;;;;;;;2204188;67;2009;-22
2023/11/17 08:36:44;;;;;;;;;;;;;;;;;;2203337;59;2798;-23
2023/11/17 08:39:25;;;;;;;;;;;;;;;;;;2202416;59;2046;-23
2023/11/17 08:41:55;;;;;;;;;;;;;;;;;;2203679;67;2613;-22
2023/11/17 08:44:27;;;;;;;;;;;;;;;;;;2203863;59;2162;-23
2023/11/17 08:46:59;;;;;;;;;;;;;;;;;;2203621;67;2264;-23
2023/11/17 08:49:30;;;;;;;;;;;;;;;;;;2203327;59;2002;-23
2023/11/17 08:52:00;;;;;;;;;;;;;;;;;;2203554;59;2569;-22
2023/11/17 08:54:30;;;;;;;;;;;;;;;;;;2195839;59;2828;-22
2023/11/17 08:57:01;;;;;;;;;;;;;;;;;;2200116;67;2408;-23
2023/11/17 08:59:31;;;;;;;;;;;;;;;;;;2197080;67;2370;-23
2023/11/17 09:02:01;;;;;;;;;;;;;;;;;;2203272;59;2504;-22
2023/11/17 09:04:32;;;;;;;;;;;;;;;;;;2202595;59;2481;-23
2023/11/17 09:07:02;;;;;;;;;;;;;;;;;;2203805;59;1873;-23
2023/11/17 09:09:32;;;;;;;;;;;;;;;;;;2198493;67;2333;-19
2023/11/17 09:12:04;;;;;;;;;;;;;;;;;;2203011;67;2769;-19
2023/11/17 09:14:36;;;;;;;;;;;;;;;;;;2202912;59;3526;-19
2023/11/17 09:17:06;;;;;;;;;;;;;;;;;;2202377;59;2800;-19
2023/11/17 09:19:38;;;;;;;;;;;;;;;;;;2201791;59;4108;-19
2023/11/17 09:22:09;;;;;;;;;;;;;;;;;;2201137;59;3257;-19
2023/11/17 09:24:39;;;;;;;;;;;;;;;;;;2202937;67;2591;-19
2023/11/17 09:27:11;;;;;;;;;;;;;;;;;;2202815;59;2511;-19
2023/11/17 09:29:41;;;;;;;;;;;;;;;;;;2202246;59;3290;-19
2023/11/17 09:32:12;;;;;;;;;;;;;;;;;;2202549;59;2293;-19
2023/11/17 09:34:42;;;;;;;;;;;;;;;;;;2204363;59;2661;-19
2023/11/17 09:37:12;;;;;;;;;;;;;;;;;;2202209;59;3249;-19
2023/11/17 09:39:43;;;;;;;;;;;;;;;;;;2202700;59;2183;-19
2023/11/17 09:42:15;;;;;;;;;;;;;;;;;;2201981;59;2581;-19
2023/11/17 09:44:46;;;;;;;;;;;;;;;;;;2205883;59;2528;-19
2023/11/17 09:47:21;;;;;;;;;;;;;;;;;;2202019;67;2119;-19
2023/11/17 09:49:53;;;;;;;;;;;;;;;;;;2200997;59;2467;-19
2023/11/17 09:52:24;;;;;;;;;;;;;;;;;;2200211;59;2681;-19
2023/11/17 09:54:55;;;;;;;;;;;;;;;;;;2202502;59;2636;-19
2023/11/17 09:57:25;;;;;;;;;;;;;;;;;;2202782;59;2896;-19
2023/11/17 09:59:56;;;;;;;;;;;;;;;;;;2202810;67;2334;-19
2023/11/17 10:02:27;;;;;;;;;;;;;;;;;;2200917;59;2606;-19
2023/11/17 10:04:59;;;;;;;;;;;;;;;;;;2202756;59;2184;-19
2023/11/17 10:07:30;;;;;;;;;;;;;;;;;;2203103;59;2717;-19
2023/11/17 10:10:01;;;;;;;;;;;;;;;;;;2203306;59;2137;-19
2023/11/17 10:12:32;;;;;;;;;;;;;;;;;;2202399;67;2809;-19
2023/11/17 10:15:06;;;;;;;;;;;;;;;;;;2201525;59;3384;-19
2023/11/17 10:17:37;;;;;;;;;;;;;;;;;;2206266;59;2308;-19
2023/11/17 10:20:17;;;;;;;;;;;;;;;;;;2205145;67;2344;-19
2023/11/17 10:22:49;;;;;;;;;;;;;;;;;;2204060;59;2480;-19
2023/11/17 10:25:21;;;;;;;;;;;;;;;;;;2199578;59;2696;-19
2023/11/17 10:27:52;;;;;;;;;;;;;;;;;;2201811;59;2913;-19
2023/11/17 10:30:29;;;;;;;;;;;;;;;;;;2203488;59;2863;-19
2023/11/17 10:33:21;;;;;;;;;;;;;;;;;;2203380;59;2011;-19
2023/11/17 10:36:05;;;;;;;;;;;;;;;;;;2202720;59;2131;-19
2023/11/17 10:38:35;;;;;;;;;;;;;;;;;;2202309;59;2098;-19
2023/11/17 10:41:26;;;;;;;;;;;;;;;;;;2202747;59;2467;-19
2023/11/17 10:44:01;;;;;;;;;;;;;;;;;;2203464;59;2508;-19
2023/11/17 10:46:44;;;;;;;;;;;;;;;;;;2202875;67;2613;-19
2023/11/17 10:49:15;;;;;;;;;;;;;;;;;;2200059;67;2745;-19
2023/11/17 10:51:49;;;;;;;;;;;;;;;;;;2203443;67;1972;-19
2023/11/17 10:54:20;;;;;;;;;;;;;;;;;;2200577;67;2785;-19
2023/11/17 10:56:51;;;;;;;;;;;;;;;;;;2202648;67;2529;-19
2023/11/17 10:59:32;;;;;;;;;;;;;;;;;;2201754;67;2176;-19
2023/11/17 11:02:04;;;;;;;;;;;;;;;;;;2201546;67;2491;-19
2023/11/17 11:04:36;;;;;;;;;;;;;;;;;;2200818;67;2342;-19
2023/11/17 11:07:07;;;;;;;;;;;;;;;;;;2202134;59;2840;-19
2023/11/17 11:09:37;;;;;;;;;;;;;;;;;;2202025;59;2370;-19
2023/11/17 11:12:12;;;;;;;;;;;;;;;;;;2202357;59;2512;-19
2023/11/17 11:14:43;;;;;;;;;;;;;;;;;;2202685;59;2990;-19
2023/11/17 11:17:14;;;;;;;;;;;;;;;;;;2201173;59;2760;-19
2023/11/17 11:19:45;;;;;;;;;;;;;;;;;;2201362;59;2083;-19
2023/11/17 11:22:16;;;;;;;;;;;;;;;;;;2200969;67;2530;-19
2023/11/17 11:24:46;;;;;;;;;;;;;;;;;;2202701;59;2100;-19
2023/11/17 11:27:17;;;;;;;;;;;;;;;;;;2202090;67;2523;-19
2023/11/17 11:29:49;;;;;;;;;;;;;;;;;;2203966;59;2563;-19
2023/11/17 11:32:20;;;;;;;;;;;;;;;;;;2202552;59;2372;-19
2023/11/17 11:34:50;;;;;;;;;;;;;;;;;;2203690;67;2700;-19
2023/11/17 11:37:22;;;;;;;;;;;;;;;;;;2202008;59;2173;-19
2023/11/17 11:39:53;;;;;;;;;;;;;;;;;;2204897;59;1799;-19
2023/11/17 11:42:23;;;;;;;;;;;;;;;;;;2203830;59;2093;-19
2023/11/17 11:44:54;;;;;;;;;;;;;;;;;;2203593;59;2502;-19
2023/11/17 11:47:24;;;;;;;;;;;;;;;;;;2202089;67;2138;-19
2023/11/17 11:49:57;;;;;;;;;;;;;;;;;;2196747;59;2903;-19
2023/11/17 11:52:40;;;;;;;;;;;;;;;;;;2202270;59;1795;-19
2023/11/17 11:55:11;;;;;;;;;;;;;;;;;;2201557;59;2618;-19
2023/11/17 11:57:42;;;;;;;;;;;;;;;;;;2200940;59;2144;-19
2023/11/17 12:00:12;;;;;;;;;;;;;;;;;;2203187;67;2688;-19
2023/11/17 12:02:53;;;;;;;;;;;;;;;;;;2202545;59;2268;-19
2023/11/17 12:05:26;;;;;;;;;;;;;;;;;;2201503;67;3161;-19
2023/11/17 12:07:57;;;;;;;;;;;;;;;;;;2202677;67;2077;-19
2023/11/17 12:10:35;;;;;;;;;;;;;;;;;;2202746;67;2189;-19
2023/11/17 12:13:07;;;;;;;;;;;;;;;;;;2204776;59;2946;-19
2023/11/17 12:15:37;;;;;;;;;;;;;;;;;;2202815;59;2522;-19
2023/11/17 12:18:11;;;;;;;;;;;;;;;;;;2203618;59;2221;-19
2023/11/17 12:20:41;;;;;;;;;;;;;;;;;;2203952;67;2136;-19
2023/11/17 12:23:12;;;;;;;;;;;;;;;;;;2204727;66;1822;-19
2023/11/17 12:25:43;;;;;;;;;;;;;;;;;;2203379;67;1974;-18
2023/11/17 12:28:14;;;;;;;;;;;;;;;;;;2203755;59;2438;-19
2023/11/17 12:30:45;;;;;;;;;;;;;;;;;;2203898;59;2434;-19
2023/11/17 12:33:15;;;;;;;;;;;;;;;;;;2204148;59;2518;-20
2023/11/17 12:35:46;;;;;;;;;;;;;;;;;;2200186;59;3202;-19
2023/11/17 12:38:16;;;;;;;;;;;;;;;;;;2204644;59;2588;-19
2023/11/17 12:40:57;;;;;;;;;;;;;;;;;;2199530;59;1972;-19
2023/11/17 12:43:31;;;;;;;;;;;;;;;;;;2201712;59;2205;-19
2023/11/17 12:46:02;;;;;;;;;;;;;;;;;;2202297;67;2387;-19
2023/11/17 12:48:33;;;;;;;;;;;;;;;;;;2203875;67;1779;-19
2023/11/17 12:51:04;;;;;;;;;;;;;;;;;;2204868;59;2085;-18
2023/11/17 12:53:36;;;;;;;;;;;;;;;;;;2203826;59;1906;-19
2023/11/17 12:56:07;;;;;;;;;;;;;;;;;;2204804;59;1943;-19
2023/11/17 12:58:38;;;;;;;;;;;;;;;;;;2203826;59;1981;-19
2023/11/17 13:01:19;;;;;;;;;;;;;;;;;;2205440;59;2940;-19
2023/11/17 13:03:51;;;;;;;;;;;;;;;;;;2207258;59;2364;-19
2023/11/17 13:06:25;;;;;;;;;;;;;;;;;;2203655;59;2484;-19
2023/11/17 13:08:56;;;;;;;;;;;;;;;;;;2205020;59;1774;-19
2023/11/17 13:11:32;;;;;;;;;;;;;;;;;;2204359;67;1896;-19
2023/11/17 13:14:08;;;;;;;;;;;;;;;;;;2205493;67;2530;-20
2023/11/17 13:16:41;;;;;;;;;;;;;;;;;;2204141;67;1913;-20
2023/11/17 13:19:11;;;;;;;;;;;;;;;;;;2205444;67;2556;-20
2023/11/17 13:21:43;;;;;;;;;;;;;;;;;;2204350;59;2827;-20
2023/11/17 13:24:13;;;;;;;;;;;;;;;;;;2205012;59;2882;-20
2023/11/17 13:26:44;;;;;;;;;;;;;;;;;;2204494;59;1767;-20
2023/11/17 13:29:18;;;;;;;;;;;;;;;;;;2204794;59;2899;-20
2023/11/17 13:32:01;;;;;;;;;;;;;;;;;;2204672;59;2124;-20
2023/11/17 13:34:33;;;;;;;;;;;;;;;;;;2203264;67;1944;-20
2023/11/17 13:37:03;;;;;;;;;;;;;;;;;;2204481;67;2674;-19
2023/11/17 13:39:36;;;;;;;;;;;;;;;;;;2203517;59;1993;-19
2023/11/17 13:42:09;;;;;;;;;;;;;;;;;;2204894;59;1832;-19
2023/11/17 13:44:41;;;;;;;;;;;;;;;;;;2204062;59;2166;-19
2023/11/17 13:47:12;;;;;;;;;;;;;;;;;;2204525;62;1871;-19
2023/11/17 13:49:43;;;;;;;;;;;;;;;;;;2203214;67;1919;-19
2023/11/17 13:52:14;;;;;;;;;;;;;;;;;;2204548;67;2124;-19
2023/11/17 13:54:47;;;;;;;;;;;;;;;;;;2203675;59;1957;-19
2023/11/17 13:57:17;;;;;;;;;;;;;;;;;;2203567;59;2156;-19
2023/11/17 13:59:49;;;;;;;;;;;;;;;;;;2204038;67;2272;-19
2023/11/17 14:02:21;;;;;;;;;;;;;;;;;;2205053;59;2981;-19
2023/11/17 14:04:55;;;;;;;;;;;;;;;;;;2204651;59;1800;-19
2023/11/17 14:07:25;;;;;;;;;;;;;;;;;;2203633;59;2627;-20
2023/11/17 14:09:55;;;;;;;;;;;;;;;;;;2200630;60;1770;-20
2023/11/17 14:12:26;;;;;;;;;;;;;;;;;;2203364;67;2229;-19
2023/11/17 14:14:57;;;;;;;;;;;;;;;;;;2204732;59;2250;-20
2023/11/17 14:17:27;;;;;;;;;;;;;;;;;;2202975;59;1998;-19
2023/11/17 14:19:57;;;;;;;;;;;;;;;;;;2205065;67;2048;-19
2023/11/17 14:22:28;;;;;;;;;;;;;;;;;;2202675;67;1942;-19
2023/11/17 14:24:59;;;;;;;;;;;;;;;;;;2204457;67;2193;-19
2023/11/17 14:27:29;;;;;;;;;;;;;;;;;;2203054;59;2184;-19
2023/11/17 14:29:59;;;;;;;;;;;;;;;;;;2204740;59;2791;-19
2023/11/17 14:32:30;;;;;;;;;;;;;;;;;;2205602;59;2461;-19
2023/11/17 14:35:00;;;;;;;;;;;;;;;;;;2204136;67;2252;-19
2023/11/17 14:37:30;;;;;;;;;;;;;;;;;;2202803;59;1971;-19
2023/11/17 14:40:06;;;;;;;;;;;;;;;;;;2204835;59;2240;-20
2023/11/17 14:42:37;;;;;;;;;;;;;;;;;;2203632;59;1927;-19
2023/11/17 14:45:10;;;;;;;;;;;;;;;;;;2202875;59;1965;-19
2023/11/17 14:47:41;;;;;;;;;;;;;;;;;;2202355;67;2802;-19
2023/11/17 14:50:13;;;;;;;;;;;;;;;;;;2204751;67;1946;-19
2023/11/17 14:52:44;;;;;;;;;;;;;;;;;;2203960;67;2313;-19
2023/11/17 14:55:21;;;;;;;;;;;;;;;;;;2204038;59;2553;-19
2023/11/17 14:57:51;;;;;;;;;;;;;;;;;;2203659;67;1963;-19
2023/11/17 15:00:24;;;;;;;;;;;;;;;;;;2201920;59;2543;-19
2023/11/17 15:02:54;;;;;;;;;;;;;;;;;;2203741;67;2648;-19
2023/11/17 15:05:24;;;;;;;;;;;;;;;;;;2204763;67;1858;-19
2023/11/17 15:07:55;;;;;;;;;;;;;;;;;;2202374;59;2164;-19
2023/11/17 15:10:25;;;;;;;;;;;;;;;;;;2201112;59;2392;-19
2023/11/17 15:12:56;;;;;;;;;;;;;;;;;;2196297;59;4803;-19
2023/11/17 15:15:29;;;;;;;;;;;;;;;;;;2201926;59;2587;-19
2023/11/17 15:18:07;;;;;;;;;;;;;;;;;;2202609;59;3328;-19
2023/11/17 15:20:39;;;;;;;;;;;;;;;;;;2200953;67;3733;-19
2023/11/17 15:23:10;;;;;;;;;;;;;;;;;;2197188;59;4417;-19
2023/11/17 15:25:41;;;;;;;;;;;;;;;;;;2201536;59;1756;-19
2023/11/17 15:28:19;;;;;;;;;;;;;;;;;;2196829;59;5553;-19
2023/11/17 15:30:56;;;;;;;;;;;;;;;;;;2198792;59;4517;-19
2023/11/17 15:33:26;;;;;;;;;;;;;;;;;;2201002;59;2285;-19
2023/11/17 15:35:56;;;;;;;;;;;;;;;;;;2202757;59;3009;-19
2023/11/17 15:38:27;;;;;;;;;;;;;;;;;;2181640;59;2748;-19
2023/11/17 15:40:58;;;;;;;;;;;;;;;;;;2197309;59;2185;-20
2023/11/17 15:43:30;;;;;;;;;;;;;;;;;;2200436;67;2167;-19
2023/11/17 15:46:00;;;;;;;;;;;;;;;;;;2201886;60;2183;-19
2023/11/17 15:48:34;;;;;;;;;;;;;;;;;;2200735;59;3886;-20
2023/11/17 15:51:05;;;;;;;;;;;;;;;;;;2203605;59;1953;-20
2023/11/17 15:53:38;;;;;;;;;;;;;;;;;;2201287;67;1754;-19
2023/11/17 15:56:08;;;;;;;;;;;;;;;;;;2203487;59;1973;-19
2023/11/17 15:58:39;;;;;;;;;;;;;;;;;;2200581;67;2112;-19
2023/11/17 16:01:10;;;;;;;;;;;;;;;;;;2200673;67;2205;-20
2023/11/17 16:03:40;;;;;;;;;;;;;;;;;;2203144;67;2427;-20
2023/11/17 16:06:10;;;;;;;;;;;;;;;;;;2204273;67;2103;-19
2023/11/17 16:08:42;;;;;;;;;;;;;;;;;;2200287;67;1823;-19
2023/11/17 16:11:18;;;;;;;;;;;;;;;;;;2203114;67;2108;-19
2023/11/17 16:13:49;;;;;;;;;;;;;;;;;;2200551;67;2051;-19
2023/11/17 16:16:21;;;;;;;;;;;;;;;;;;2204372;67;2284;-19
2023/11/17 16:18:52;;;;;;;;;;;;;;;;;;2202547;59;2608;-22
2023/11/17 16:21:23;;;;;;;;;;;;;;;;;;2204551;59;3378;-21
2023/11/17 16:23:53;;;;;;;;;;;;;;;;;;2202621;59;2636;-21
2023/11/17 16:26:23;;;;;;;;;;;;;;;;;;2203010;67;2240;-22
2023/11/17 16:28:56;;;;;;;;;;;;;;;;;;2203255;59;2860;-21
2023/11/17 16:31:26;;;;;;;;;;;;;;;;;;2202447;59;1810;-23
2023/11/17 16:33:58;;;;;;;;;;;;;;;;;;2201609;59;2063;-21
2023/11/17 16:36:28;;;;;;;;;;;;;;;;;;2204486;59;1939;-23
2023/11/17 16:39:00;;;;;;;;;;;;;;;;;;2204208;59;2358;-22
2023/11/17 16:41:30;;;;;;;;;;;;;;;;;;2203193;59;2406;-23
2023/11/17 16:44:01;;;;;;;;;;;;;;;;;;2202229;59;2717;-22
2023/11/17 16:46:32;;;;;;;;;;;;;;;;;;2202713;59;2375;-23
2023/11/17 16:49:05;;;;;;;;;;;;;;;;;;2203913;59;2564;-23
2023/11/17 16:51:36;;;;;;;;;;;;;;;;;;2202411;59;2269;-22
2023/11/17 16:54:06;;;;;;;;;;;;;;;;;;2204036;59;1991;-23
2023/11/17 16:56:36;;;;;;;;;;;;;;;;;;2202939;59;2049;-23
2023/11/17 16:59:07;;;;;;;;;;;;;;;;;;2204320;67;2287;-22
2023/11/17 17:01:37;;;;;;;;;;;;;;;;;;2203459;67;1773;-21
2023/11/17 17:04:08;;;;;;;;;;;;;;;;;;2203559;59;2439;-22
2023/11/17 17:06:38;;;;;;;;;;;;;;;;;;2203892;67;2217;-22
2023/11/17 17:09:10;;;;;;;;;;;;;;;;;;2204735;67;1941;-22
2023/11/17 17:11:41;;;;;;;;;;;;;;;;;;2203283;59;1970;-22
2023/11/17 17:14:11;;;;;;;;;;;;;;;;;;2204523;59;1834;-21
2023/11/17 17:16:42;;;;;;;;;;;;;;;;;;2203277;59;2111;-22
2023/11/17 17:19:12;;;;;;;;;;;;;;;;;;2204208;59;2703;-22
2023/11/17 17:21:42;;;;;;;;;;;;;;;;;;2201376;59;3603;-22
2023/11/17 17:24:15;;;;;;;;;;;;;;;;;;2203502;67;1892;-23
2023/11/17 17:26:46;;;;;;;;;;;;;;;;;;2201336;59;2903;-19
2023/11/17 17:29:16;;;;;;;;;;;;;;;;;;2203205;59;2605;-18
2023/11/17 17:31:47;;;;;;;;;;;;;;;;;;2202939;59;2397;-18
2023/11/17 17:34:18;;;;;;;;;;;;;;;;;;2204774;59;2178;-18
2023/11/17 17:36:48;;;;;;;;;;;;;;;;;;2200360;59;2615;-18